Time;durP1;ratioP1;P1;durP2;ratioP2;P2;SDS_P1;SDS_P2;PMS_P1;PMS_P2;Temp;Humidity;BMP_temperature;BMP_pressure;BME280_temperature;BME280_humidity;BME280_pressure;Samples;Min_cycle;Max_cycle;Signal;HPM_P1;HPM_P2
2023/01/04 00:01:37;;;;;;;;;;;;;;;25.57;42.06;95470.28;4984166;28;9115;-71
2023/01/04 00:04:06;;;;;;;;;;;;;;;25.55;41.80;95469.25;4970446;28;9463;-71
2023/01/04 00:06:34;;;;;;;;;;;;;;;25.54;41.49;95449.22;4955017;28;7362;-72
2023/01/04 00:09:00;;;;;;;;;;;;;;;25.57;42.28;95439.97;4969123;28;7088;-71
2023/01/04 00:11:31;;;;;;;;;;;;;;;25.58;42.37;95435.97;4983545;28;7017;-71
2023/01/04 00:13:58;;;;;;;;;;;;;;;25.58;42.60;95447.00;4982871;28;8737;-72
2023/01/04 00:16:26;;;;;;;;;;;;;;;25.58;41.93;95455.25;4961209;28;9057;-72
2023/01/04 00:18:55;;;;;;;;;;;;;;;25.56;41.94;95462.50;4968686;28;7200;-72
2023/01/04 00:21:28;;;;;;;;;;;;;;;25.57;42.12;95464.78;4969157;28;8115;-72
2023/01/04 00:23:59;;;;;;;;;;;;;;;25.57;42.07;95453.75;4968543;28;9277;-72
2023/01/04 00:26:32;;;;;;;;;;;;;;;25.56;42.41;95443.97;4969796;28;8592;-72
2023/01/04 00:29:07;;;;;;;;;;;;;;;25.59;41.77;95447.75;4966501;28;9442;-72
2023/01/04 00:31:36;;;;;;;;;;;;;;;25.59;41.62;95443.00;4967971;28;9415;-72
2023/01/04 00:34:22;;;;;;;;;;;;;;;25.60;42.46;95441.03;4966595;28;7292;-71
2023/01/04 00:36:59;;;;;;;;;;;;;;;25.58;42.31;95447.00;4972928;28;8868;-71
2023/01/04 00:39:33;;;;;;;;;;;;;;;25.56;42.43;95438.47;4979328;28;9032;-72
2023/01/04 00:42:04;;;;;;;;;;;;;;;25.56;42.27;95434.94;4971394;28;7209;-71
2023/01/04 00:44:34;;;;;;;;;;;;;;;25.55;42.16;95436.19;4972895;28;9396;-71
2023/01/04 00:47:04;;;;;;;;;;;;;;;25.55;42.74;95431.44;4968912;28;9278;-72
2023/01/04 00:49:40;;;;;;;;;;;;;;;25.52;42.21;95428.91;4969477;28;9244;-71
2023/01/04 00:52:10;;;;;;;;;;;;;;;25.48;42.47;95428.34;4971269;28;7273;-71
2023/01/04 00:54:37;;;;;;;;;;;;;;;25.48;42.72;95420.84;4965904;28;9095;-72
2023/01/04 00:57:06;;;;;;;;;;;;;;;25.50;42.23;95414.84;4970277;28;8727;-72
2023/01/04 00:59:32;;;;;;;;;;;;;;;25.47;42.44;95411.06;4962736;28;7225;-72
2023/01/04 01:02:00;;;;;;;;;;;;;;;25.49;43.00;95429.88;4981212;28;7027;-72
2023/01/04 01:04:30;;;;;;;;;;;;;;;25.47;42.20;95438.59;4978634;28;7329;-71
2023/01/04 01:07:01;;;;;;;;;;;;;;;25.47;42.51;95433.09;4986524;28;7260;-72
2023/01/04 01:09:31;;;;;;;;;;;;;;;25.51;42.34;95432.91;4972962;28;9060;-71
2023/01/04 01:11:57;;;;;;;;;;;;;;;25.51;41.85;95444.69;4971624;28;9445;-72
2023/01/04 01:14:24;;;;;;;;;;;;;;;25.53;42.24;95442.19;4966819;28;8979;-71
2023/01/04 01:16:53;;;;;;;;;;;;;;;25.51;42.26;95450.19;4973966;28;9035;-71
2023/01/04 01:19:29;;;;;;;;;;;;;;;25.49;42.07;95446.41;4969246;28;9133;-71
2023/01/04 01:21:59;;;;;;;;;;;;;;;25.47;42.91;95443.38;4987861;28;7703;-72
2023/01/04 01:24:28;;;;;;;;;;;;;;;25.44;42.86;95439.59;4972151;28;7108;-71
2023/01/04 01:26:56;;;;;;;;;;;;;;;25.47;42.06;95444.13;4970469;28;8712;-71
2023/01/04 01:29:24;;;;;;;;;;;;;;;25.45;42.37;95452.13;4967076;28;7321;-72
2023/01/04 01:31:54;;;;;;;;;;;;;;;25.48;42.42;95455.91;4988851;28;9063;-71
2023/01/04 01:34:22;;;;;;;;;;;;;;;25.48;42.06;95464.16;4970956;28;7272;-71
2023/01/04 01:36:49;;;;;;;;;;;;;;;25.49;42.34;95463.66;4971934;28;9058;-71
2023/01/04 01:39:19;;;;;;;;;;;;;;;25.49;42.39;95468.44;4965928;28;9675;-72
2023/01/04 01:41:45;;;;;;;;;;;;;;;25.51;42.84;95466.72;4969788;28;9195;-72
2023/01/04 01:44:11;;;;;;;;;;;;;;;25.50;42.73;95465.19;4980779;28;7630;-71
2023/01/04 01:46:44;;;;;;;;;;;;;;;25.47;42.43;95457.88;4967726;28;7241;-72
2023/01/04 01:49:19;;;;;;;;;;;;;;;25.46;42.36;95453.63;4964502;28;9023;-71
2023/01/04 01:51:45;;;;;;;;;;;;;;;25.48;42.62;95470.44;4961460;28;7105;-72
2023/01/04 01:54:21;;;;;;;;;;;;;;;25.47;42.53;95466.16;4971317;28;6864;-71
2023/01/04 01:57:05;;;;;;;;;;;;;;;25.47;42.24;95457.88;4963461;28;7037;-71
2023/01/04 01:59:35;;;;;;;;;;;;;;;25.47;43.00;95462.66;4960393;28;7565;-71
2023/01/04 02:02:27;;;;;;;;;;;;;;;25.46;42.72;95472.16;4961581;28;7003;-71
2023/01/04 02:05:26;;;;;;;;;;;;;;;25.44;42.18;95472.66;4983061;28;9611;-71
2023/01/04 02:08:18;;;;;;;;;;;;;;;25.45;43.04;95468.63;4951493;28;7494;-71
2023/01/04 02:10:44;;;;;;;;;;;;;;;25.46;42.39;95470.16;4932539;28;7062;-71
2023/01/04 02:13:16;;;;;;;;;;;;;;;25.50;42.13;95470.72;4932627;28;7039;-72
2023/01/04 02:16:20;;;;;;;;;;;;;;;25.51;42.44;95461.22;4952233;28;9015;-71
2023/01/04 02:19:40;;;;;;;;;;;;;;;25.53;42.49;95467.00;4926230;28;7014;-71
2023/01/04 02:22:24;;;;;;;;;;;;;;;25.50;42.51;95454.19;4931921;29;8381;-71
2023/01/04 02:25:07;;;;;;;;;;;;;;;25.53;42.33;95453.22;4910826;29;7260;-71
2023/01/04 02:28:07;;;;;;;;;;;;;;;25.50;41.83;95458.94;4906548;29;9056;-72
2023/01/04 02:31:10;;;;;;;;;;;;;;;25.49;41.95;95449.91;4911629;29;6970;-71
2023/01/04 02:33:44;;;;;;;;;;;;;;;25.51;42.31;95452.19;4924192;29;7267;-71
2023/01/04 02:36:36;;;;;;;;;;;;;;;25.50;42.39;95445.91;4927931;29;7059;-71
2023/01/04 02:39:22;;;;;;;;;;;;;;;25.52;42.16;95445.41;4929096;29;7228;-71
2023/01/04 02:41:59;;;;;;;;;;;;;;;25.54;41.91;95451.97;4932238;29;7352;-72
2023/01/04 02:44:57;;;;;;;;;;;;;;;25.52;42.68;95448.19;4924053;29;9058;-71
2023/01/04 02:50:32;;;;;;;;;;;;;;;25.54;42.99;95445.69;4939725;29;7193;-71
2023/01/04 02:53:04;;;;;;;;;;;;;;;25.55;42.31;95436.19;4931284;29;7532;-71
2023/01/04 02:56:16;;;;;;;;;;;;;;;25.53;42.91;95439.44;4950961;28;7397;-72
2023/01/04 02:59:15;;;;;;;;;;;;;;;25.52;42.65;95443.44;4958979;28;7357;-71
2023/01/04 03:09:03;;;;;;;;;;;;;;;25.50;42.67;95454.19;4906871;29;8803;-72
2023/01/04 03:14:59;;;;;;;;;;;;;;;25.50;42.98;95453.41;4912106;29;9321;-71
2023/01/04 03:17:31;;;;;;;;;;;;;;;25.48;42.93;95461.41;4912494;29;7380;-69
2023/01/04 03:20:28;;;;;;;;;;;;;;;25.47;43.17;95460.66;4895326;29;8676;-70
2023/01/04 03:36:00;;;;;;;;;;;;;;;25.37;42.71;95446.25;4820144;29;9054;-71
2023/01/04 03:51:44;;;;;;;;;;;;;;;25.41;42.96;95424.00;4805390;29;6978;-72
2023/01/04 03:54:35;;;;;;;;;;;;;;;25.40;43.14;95426.00;4788646;29;7265;-71
2023/01/04 03:57:04;;;;;;;;;;;;;;;25.37;42.99;95415.97;4801574;29;9546;-71
2023/01/04 03:59:36;;;;;;;;;;;;;;;25.35;43.04;95420.44;4804879;29;7289;-71
2023/01/04 04:02:39;;;;;;;;;;;;;;;25.33;43.29;95401.66;4811140;29;9981;-71
2023/01/04 04:10:36;;;;;;;;;;;;;;;25.38;42.53;95400.94;4774642;29;7077;-71
2023/01/04 04:13:02;;;;;;;;;;;;;;;25.39;43.23;95388.69;4842556;29;7926;-71
2023/01/04 04:15:31;;;;;;;;;;;;;;;25.37;42.66;95388.41;4841168;29;7255;-71
2023/01/04 04:17:57;;;;;;;;;;;;;;;25.38;42.54;95383.69;4832788;29;8992;-71
2023/01/04 04:20:22;;;;;;;;;;;;;;;25.37;43.17;95384.91;4839540;29;9540;-71
2023/01/04 04:22:57;;;;;;;;;;;;;;;25.38;42.41;95386.44;4831786;29;7311;-71
2023/01/04 04:25:24;;;;;;;;;;;;;;;25.41;43.25;95380.69;4815500;29;7102;-71
2023/01/04 04:27:52;;;;;;;;;;;;;;;25.42;43.07;95378.72;4885267;29;8778;-72
2023/01/04 04:30:21;;;;;;;;;;;;;;;25.40;42.86;95378.44;4879924;29;7193;-71
2023/01/04 04:33:17;;;;;;;;;;;;;;;25.40;42.81;95381.19;4886996;29;7747;-71
2023/01/04 04:35:43;;;;;;;;;;;;;;;25.41;42.71;95379.94;4837048;29;7439;-72
2023/01/04 04:38:13;;;;;;;;;;;;;;;25.42;42.38;95379.47;4837320;29;9011;-71
2023/01/04 04:43:26;;;;;;;;;;;;;;;25.42;42.97;95398.00;4886421;29;7278;-72
2023/01/04 04:45:52;;;;;;;;;;;;;;;25.46;42.63;95398.56;4877934;29;7598;-71
2023/01/04 04:48:18;;;;;;;;;;;;;;;25.47;42.50;95389.03;4871645;29;9362;-71
2023/01/04 04:50:44;;;;;;;;;;;;;;;25.45;42.90;95394.28;4876555;29;8041;-71
2023/01/04 04:53:10;;;;;;;;;;;;;;;25.44;42.82;95398.28;4874317;29;7509;-71
2023/01/04 04:55:50;;;;;;;;;;;;;;;25.43;42.25;95399.50;4883133;29;8009;-71
2023/01/04 04:58:17;;;;;;;;;;;;;;;25.43;42.29;95405.78;4883680;29;7027;-71
2023/01/04 05:00:44;;;;;;;;;;;;;;;25.43;42.35;95405.78;4867775;29;9577;-71
2023/01/04 05:03:10;;;;;;;;;;;;;;;25.42;43.00;95409.03;4881712;29;7144;-71
2023/01/04 05:05:36;;;;;;;;;;;;;;;25.40;43.15;95406.72;4872475;29;8706;-72
2023/01/04 05:08:04;;;;;;;;;;;;;;;25.40;43.29;95400.47;4882416;29;7039;-72
2023/01/04 05:10:30;;;;;;;;;;;;;;;25.40;43.33;95408.72;4876672;29;7213;-71
2023/01/04 05:13:01;;;;;;;;;;;;;;;25.40;42.49;95401.19;4955685;28;9529;-71
2023/01/04 05:15:37;;;;;;;;;;;;;;;25.44;43.10;95398.28;4968096;28;9149;-71
2023/01/04 05:18:05;;;;;;;;;;;;;;;25.42;42.74;95396.00;4977512;28;9102;-72
2023/01/04 05:20:32;;;;;;;;;;;;;;;25.42;42.51;95406.28;4958103;28;7195;-72
2023/01/04 05:23:05;;;;;;;;;;;;;;;25.41;42.56;95407.47;4968434;28;7268;-72
2023/01/04 05:25:35;;;;;;;;;;;;;;;25.42;43.37;95409.03;4984379;28;7182;-72
2023/01/04 05:28:22;;;;;;;;;;;;;;;25.44;42.80;95409.31;4971700;28;7394;-72
2023/01/04 05:30:56;;;;;;;;;;;;;;;25.43;42.67;95407.78;4959528;28;10262;-72
2023/01/04 05:33:53;;;;;;;;;;;;;;;25.42;42.95;95414.53;4971943;28;7242;-72
2023/01/04 05:36:44;;;;;;;;;;;;;;;25.40;43.38;95411.50;4971264;28;9187;-72
2023/01/04 05:39:30;;;;;;;;;;;;;;;25.39;43.22;95405.22;4980044;28;7060;-72
2023/01/04 05:44:44;;;;;;;;;;;;;;;25.36;43.19;95405.41;4966608;28;8773;-72
2023/01/04 05:47:51;;;;;;;;;;;;;;;25.37;42.54;95415.97;4968282;28;7180;-72
2023/01/04 05:54:02;;;;;;;;;;;;;;;25.36;43.04;95421.94;4871404;29;7643;-72
2023/01/04 05:56:47;;;;;;;;;;;;;;;25.34;42.60;95414.16;4860808;29;8731;-72
2023/01/04 05:59:26;;;;;;;;;;;;;;;25.35;43.04;95414.94;4859357;29;7282;-72
2023/01/04 06:02:04;;;;;;;;;;;;;;;25.35;42.86;95410.19;4876890;29;8692;-71
2023/01/04 06:04:32;;;;;;;;;;;;;;;25.35;42.62;95406.66;4875892;29;7279;-71
2023/01/04 06:07:23;;;;;;;;;;;;;;;25.34;42.84;95405.91;4865411;29;7036;-71
2023/01/04 06:09:52;;;;;;;;;;;;;;;25.32;43.46;95408.38;4874355;29;7415;-72
2023/01/04 06:12:21;;;;;;;;;;;;;;;25.33;42.97;95411.91;4877371;29;7053;-71
2023/01/04 06:14:46;;;;;;;;;;;;;;;25.32;43.45;95413.13;4883835;29;7268;-72
2023/01/04 06:17:15;;;;;;;;;;;;;;;25.30;43.33;95412.88;4861306;29;7262;-72
2023/01/04 06:19:55;;;;;;;;;;;;;;;25.31;42.70;95409.66;4873601;29;7048;-71
2023/01/04 06:22:34;;;;;;;;;;;;;;;25.30;43.27;95412.88;4876435;29;9174;-71
2023/01/04 06:25:00;;;;;;;;;;;;;;;25.29;43.47;95417.59;4890358;29;9138;-71
2023/01/04 06:27:28;;;;;;;;;;;;;;;25.30;42.91;95407.34;4883339;29;9126;-71
2023/01/04 06:29:54;;;;;;;;;;;;;;;25.33;42.93;95400.88;4948244;28;9384;-71
2023/01/04 06:32:20;;;;;;;;;;;;;;;25.31;42.73;95401.38;4979290;28;7208;-72
2023/01/04 06:34:58;;;;;;;;;;;;;;;25.31;43.22;95395.88;4959989;28;7011;-72
2023/01/04 06:37:39;;;;;;;;;;;;;;;25.33;42.44;95396.16;4964203;28;7038;-72
2023/01/04 06:40:11;;;;;;;;;;;;;;;25.33;43.46;95396.16;4983109;28;7078;-72
2023/01/04 06:42:45;;;;;;;;;;;;;;;25.30;43.00;95399.84;4962095;28;7234;-71
2023/01/04 06:45:12;;;;;;;;;;;;;;;25.32;43.26;95407.63;4963363;28;7050;-71
2023/01/04 06:47:40;;;;;;;;;;;;;;;25.31;42.73;95406.13;4967121;28;7130;-71
2023/01/04 06:50:10;;;;;;;;;;;;;;;25.30;43.45;95401.84;4978755;28;7265;-72
2023/01/04 06:52:36;;;;;;;;;;;;;;;25.30;43.09;95412.88;4974562;28;7025;-71
2023/01/04 06:55:02;;;;;;;;;;;;;;;25.29;42.89;95414.84;4968158;28;7489;-71
2023/01/04 06:57:29;;;;;;;;;;;;;;;25.32;43.45;95415.88;4968445;28;8704;-71
2023/01/04 07:00:00;;;;;;;;;;;;;;;25.33;43.14;95415.41;4968252;28;7250;-71
2023/01/04 07:02:27;;;;;;;;;;;;;;;25.38;42.91;95416.72;4978445;28;9375;-71
2023/01/04 07:05:08;;;;;;;;;;;;;;;25.41;42.83;95415.75;4968957;28;7016;-71
2023/01/04 07:07:36;;;;;;;;;;;;;;;25.45;42.38;95421.81;4972786;28;7254;-71
2023/01/04 07:10:09;;;;;;;;;;;;;;;25.47;42.38;95405.56;4972165;28;7282;-71
2023/01/04 07:12:35;;;;;;;;;;;;;;;25.48;42.44;95420.09;4965072;28;9053;-71
2023/01/04 07:15:01;;;;;;;;;;;;;;;25.48;42.74;95420.84;4971354;28;8314;-71
2023/01/04 07:17:27;;;;;;;;;;;;;;;25.50;42.53;95420.38;4969744;28;9286;-70
2023/01/04 07:19:54;;;;;;;;;;;;;;;25.50;42.33;95423.13;4968899;28;7176;-70
2023/01/04 07:22:22;;;;;;;;;;;;;;;25.50;42.53;95423.88;4972307;28;9046;-71
2023/01/04 07:24:53;;;;;;;;;;;;;;;25.52;42.76;95428.91;4980637;28;9019;-71
2023/01/04 07:27:32;;;;;;;;;;;;;;;25.51;42.63;95433.66;4970807;28;8567;-71
2023/01/04 07:30:15;;;;;;;;;;;;;;;25.52;41.99;95431.66;4964597;28;6974;-70
2023/01/04 07:32:41;;;;;;;;;;;;;;;25.52;42.53;95426.91;4968663;28;8351;-70
2023/01/04 07:35:09;;;;;;;;;;;;;;;25.46;42.32;95425.34;4974573;28;7019;-70
2023/01/04 07:41:30;;;;;;;;;;;;;;;25.41;41.99;95424.00;4944723;28;7225;-71
2023/01/04 07:43:56;;;;;;;;;;;;;;;25.39;42.61;95432.75;4945327;28;9194;-71
2023/01/04 07:47:13;;;;;;;;;;;;;;;25.36;43.23;95433.72;4938078;28;9024;-70
2023/01/04 07:49:47;;;;;;;;;;;;;;;25.37;42.83;95439.97;4938797;28;7022;-72
2023/01/04 07:52:13;;;;;;;;;;;;;;;25.41;42.53;95440.53;4937953;28;9083;-72
2023/01/04 07:54:54;;;;;;;;;;;;;;;25.43;42.22;95438.06;4926930;28;10090;-72
2023/01/04 07:57:33;;;;;;;;;;;;;;;25.40;43.04;95439.03;4939043;28;8791;-72
2023/01/04 08:00:52;;;;;;;;;;;;;;;25.37;42.34;95439.97;4935090;28;8750;-72
2023/01/04 08:03:18;;;;;;;;;;;;;;;25.37;42.83;95432.47;4931145;29;7199;-73
2023/01/04 08:05:53;;;;;;;;;;;;;;;25.36;43.65;95439.22;4924452;29;7229;-73
2023/01/04 08:08:19;;;;;;;;;;;;;;;25.36;43.11;95439.22;4927263;29;7059;-72
2023/01/04 08:10:45;;;;;;;;;;;;;;;25.36;43.45;95438.47;4902315;29;7087;-72
2023/01/04 08:13:11;;;;;;;;;;;;;;;25.35;43.49;95447.97;4928524;29;7417;-72
2023/01/04 08:15:36;;;;;;;;;;;;;;;25.34;43.68;95441.72;4922513;29;7105;-71
2023/01/04 08:18:07;;;;;;;;;;;;;;;25.35;43.79;95447.97;4917602;29;7077;-73
2023/01/04 08:20:33;;;;;;;;;;;;;;;25.35;42.88;95443.22;4932710;28;7101;-73
2023/01/04 08:23:05;;;;;;;;;;;;;;;25.35;44.30;95443.22;4912468;29;9129;-73
2023/01/04 08:25:33;;;;;;;;;;;;;;;25.39;43.93;95440.25;4929077;28;9006;-73
2023/01/04 08:28:01;;;;;;;;;;;;;;;25.41;43.04;95452.31;4931607;29;7045;-74
2023/01/04 08:30:30;;;;;;;;;;;;;;;25.41;43.37;95446.78;4929875;29;7119;-73
2023/01/04 08:33:02;;;;;;;;;;;;;;;25.41;43.37;95449.56;4913274;29;9361;-73
2023/01/04 08:35:41;;;;;;;;;;;;;;;25.41;43.60;95457.81;4927967;29;8233;-73
2023/01/04 08:38:08;;;;;;;;;;;;;;;25.42;43.46;95453.84;4917893;28;7057;-73
2023/01/04 08:40:35;;;;;;;;;;;;;;;25.43;43.02;95462.84;4981215;28;8703;-72
2023/01/04 08:43:02;;;;;;;;;;;;;;;25.44;43.18;95456.13;4984654;28;9099;-73
2023/01/04 08:45:29;;;;;;;;;;;;;;;25.43;43.47;95460.09;4968565;28;7498;-72
2023/01/04 08:47:56;;;;;;;;;;;;;;;25.46;43.11;95469.41;4968157;28;7367;-73
2023/01/04 08:50:22;;;;;;;;;;;;;;;25.46;43.26;95472.91;4969179;28;7025;-72
2023/01/04 08:52:51;;;;;;;;;;;;;;;25.48;43.25;95464.94;4971000;28;7214;-73
2023/01/04 08:55:17;;;;;;;;;;;;;;;25.47;43.35;95463.41;4984814;28;9080;-72
2023/01/04 08:57:43;;;;;;;;;;;;;;;25.48;43.32;95453.91;4964335;28;7715;-72
2023/01/04 09:00:13;;;;;;;;;;;;;;;25.50;43.23;95458.94;4960696;28;7154;-73
2023/01/04 09:02:49;;;;;;;;;;;;;;;25.49;43.34;95452.66;4966985;28;9474;-73
2023/01/04 09:05:15;;;;;;;;;;;;;;;25.48;43.38;95445.66;4974331;28;8995;-72
2023/01/04 09:07:45;;;;;;;;;;;;;;;25.49;42.66;95460.91;4982006;28;7181;-72
2023/01/04 09:10:15;;;;;;;;;;;;;;;25.48;42.78;95462.19;4955001;28;9362;-72
2023/01/04 09:12:46;;;;;;;;;;;;;;;25.47;43.60;95463.41;4988331;28;7004;-72
2023/01/04 09:15:12;;;;;;;;;;;;;;;25.48;43.43;95477.94;4984599;28;9359;-72
2023/01/04 09:17:38;;;;;;;;;;;;;;;25.47;42.86;95471.66;4970156;28;7115;-73
2023/01/04 09:20:04;;;;;;;;;;;;;;;25.47;43.80;95465.41;4970504;28;8917;-73
2023/01/04 09:22:30;;;;;;;;;;;;;;;25.44;42.93;95464.38;4968449;28;7569;-72
2023/01/04 09:24:56;;;;;;;;;;;;;;;25.46;43.22;95470.16;4978944;28;7068;-72
2023/01/04 09:27:26;;;;;;;;;;;;;;;25.43;43.74;95465.63;4967905;28;7199;-72
2023/01/04 09:29:52;;;;;;;;;;;;;;;25.43;43.79;95463.63;4969821;28;7305;-72
2023/01/04 09:32:18;;;;;;;;;;;;;;;25.42;43.56;95470.34;4983612;28;8948;-70
2023/01/04 09:34:44;;;;;;;;;;;;;;;25.38;43.74;95460.78;4982492;28;7852;-71
2023/01/04 09:37:10;;;;;;;;;;;;;;;25.41;42.95;95468.06;4966849;28;9355;-72
2023/01/04 09:39:36;;;;;;;;;;;;;;;25.44;43.07;95475.41;4973762;28;9008;-72
2023/01/04 09:42:12;;;;;;;;;;;;;;;25.46;43.71;95472.16;4984171;28;7020;-71
2023/01/04 09:45:00;;;;;;;;;;;;;;;25.43;43.51;95469.13;4958192;28;7308;-71
2023/01/04 09:48:23;;;;;;;;;;;;;;;25.47;43.56;95471.66;4983451;28;7511;-71
2023/01/04 09:50:55;;;;;;;;;;;;;;;25.46;43.19;95456.41;4887644;29;9033;-72
2023/01/04 09:53:30;;;;;;;;;;;;;;;25.46;43.43;95470.16;4868253;29;9412;-72
2023/01/04 09:56:35;;;;;;;;;;;;;;;25.48;43.67;95473.19;4870903;29;8700;-73
2023/01/04 09:59:08;;;;;;;;;;;;;;;25.49;42.63;95468.44;4879108;29;7444;-73
2023/01/04 10:01:52;;;;;;;;;;;;;;;25.48;42.93;95459.41;4871369;29;8967;-72
2023/01/04 10:04:44;;;;;;;;;;;;;;;25.47;43.29;95455.13;4868245;29;7285;-72
2023/01/04 10:07:32;;;;;;;;;;;;;;;25.49;42.86;95460.19;4885946;29;7342;-71
2023/01/04 10:10:00;;;;;;;;;;;;;;;25.48;43.15;95461.41;4873018;29;7369;-71
2023/01/04 10:12:44;;;;;;;;;;;;;;;25.46;43.55;95461.13;4899797;29;7226;-72
2023/01/04 10:15:26;;;;;;;;;;;;;;;25.44;43.66;95453.38;4886029;29;7197;-71
2023/01/04 10:18:10;;;;;;;;;;;;;;;25.43;43.05;95451.84;4866001;29;9364;-71
2023/01/04 10:20:45;;;;;;;;;;;;;;;25.40;43.53;95444.53;4875736;28;7292;-72
2023/01/04 10:23:17;;;;;;;;;;;;;;;25.41;43.14;95440.53;4960278;28;9190;-72
2023/01/04 10:25:54;;;;;;;;;;;;;;;25.41;42.88;95435.78;4956366;28;8718;-72
2023/01/04 10:28:39;;;;;;;;;;;;;;;25.42;43.33;95431.81;4978873;28;9036;-72
2023/01/04 10:31:13;;;;;;;;;;;;;;;25.42;43.27;95431.06;4978059;28;9113;-73
2023/01/04 10:33:49;;;;;;;;;;;;;;;25.44;43.46;95409.31;4961891;28;7322;-73
2023/01/04 10:36:20;;;;;;;;;;;;;;;25.51;42.99;95406.13;4976952;28;7416;-72
2023/01/04 10:39:01;;;;;;;;;;;;;;;25.48;43.01;95403.56;4977714;28;8962;-73
2023/01/04 10:41:52;;;;;;;;;;;;;;;25.50;43.03;95398.31;4958315;28;7468;-73
2023/01/04 10:44:45;;;;;;;;;;;;;;;25.50;43.60;95395.56;4977472;28;7449;-72
2023/01/04 10:47:38;;;;;;;;;;;;;;;25.51;43.18;95397.84;4986172;28;7012;-73
2023/01/04 10:50:12;;;;;;;;;;;;;;;25.52;42.96;95393.09;4915732;29;7062;-73
2023/01/04 10:52:55;;;;;;;;;;;;;;;25.53;42.57;95392.63;4908129;29;7290;-73
2023/01/04 10:55:33;;;;;;;;;;;;;;;25.53;42.82;95392.63;4916483;29;8794;-73
2023/01/04 10:58:38;;;;;;;;;;;;;;;25.53;43.39;95389.88;4929251;29;9200;-72
2023/01/04 11:01:28;;;;;;;;;;;;;;;25.52;43.31;95384.81;4924791;29;8723;-72
2023/01/04 11:04:14;;;;;;;;;;;;;;;25.51;42.65;95389.59;4926804;29;8784;-73
2023/01/04 11:06:58;;;;;;;;;;;;;;;25.52;43.30;95404.88;4928365;29;7508;-72
2023/01/04 11:09:43;;;;;;;;;;;;;;;25.57;43.59;95404.16;4910585;29;7330;-71
2023/01/04 11:12:14;;;;;;;;;;;;;;;25.57;43.30;95387.66;4930346;29;8742;-71
2023/01/04 11:14:41;;;;;;;;;;;;;;;25.60;42.72;95380.41;4919455;29;8982;-71
2023/01/04 11:17:11;;;;;;;;;;;;;;;25.59;42.58;95378.88;4920343;29;9127;-71
2023/01/04 11:19:39;;;;;;;;;;;;;;;25.59;42.95;95365.09;4912277;29;7131;-72
2023/01/04 11:22:19;;;;;;;;;;;;;;;25.62;42.41;95370.38;4914740;29;8963;-71
2023/01/04 11:24:52;;;;;;;;;;;;;;;25.62;42.37;95367.63;4911551;29;8502;-72
2023/01/04 11:27:23;;;;;;;;;;;;;;;25.66;42.56;95367.44;4940815;28;7439;-72
2023/01/04 11:30:15;;;;;;;;;;;;;;;25.68;41.76;95359.44;4956736;28;7291;-72
2023/01/04 11:33:24;;;;;;;;;;;;;;;25.66;41.85;95348.91;4979788;28;7581;-72
2023/01/04 11:35:57;;;;;;;;;;;;;;;25.66;42.28;95348.91;4974468;28;9698;-72
2023/01/04 11:38:54;;;;;;;;;;;;;;;25.67;42.13;95347.66;4972866;28;7435;-72
2023/01/04 11:41:30;;;;;;;;;;;;;;;25.68;42.74;95357.44;4891093;29;9024;-72
2023/01/04 11:44:21;;;;;;;;;;;;;;;25.68;42.27;95351.16;4877023;29;8973;-72
2023/01/04 11:47:18;;;;;;;;;;;;;;;25.68;42.75;95346.41;4873933;29;9048;-72
2023/01/04 11:49:57;;;;;;;;;;;;;;;25.70;42.76;95337.66;4879631;29;7260;-72
2023/01/04 11:52:28;;;;;;;;;;;;;;;25.69;41.75;95339.66;4876809;29;7031;-72
2023/01/04 11:55:38;;;;;;;;;;;;;;;25.68;41.90;95326.38;4873317;29;7428;-72
2023/01/04 11:58:14;;;;;;;;;;;;;;;25.67;41.87;95319.34;4893468;29;7476;-71
2023/01/04 12:01:20;;;;;;;;;;;;;;;25.69;42.20;95312.09;4889386;29;7211;-72
2023/01/04 12:04:34;;;;;;;;;;;;;;;25.68;41.76;95307.09;4884462;29;8267;-72
2023/01/04 12:07:27;;;;;;;;;;;;;;;25.68;41.77;95310.59;4864393;29;7136;-71
2023/01/04 12:09:55;;;;;;;;;;;;;;;25.66;42.29;95317.84;4855185;29;7607;-72
2023/01/04 12:12:28;;;;;;;;;;;;;;;25.67;42.49;95322.09;4852939;29;7313;-72
2023/01/04 12:14:59;;;;;;;;;;;;;;;25.69;42.41;95312.09;4871167;29;8915;-72
2023/01/04 12:17:38;;;;;;;;;;;;;;;25.70;42.36;95307.34;4879331;28;7628;-72
2023/01/04 12:20:26;;;;;;;;;;;;;;;25.68;43.20;95310.59;4931186;28;7355;-72
2023/01/04 12:22:52;;;;;;;;;;;;;;;25.71;42.93;95304.09;4918256;29;8834;-73
2023/01/04 12:26:00;;;;;;;;;;;;;;;25.74;42.06;95305.88;4914841;29;7077;-71
2023/01/04 12:28:47;;;;;;;;;;;;;;;25.72;42.48;95302.88;4876745;29;7298;-72
2023/01/04 12:31:31;;;;;;;;;;;;;;;25.71;43.05;95306.84;4876786;29;7275;-71
2023/01/04 12:34:22;;;;;;;;;;;;;;;25.70;42.95;95305.34;4871064;29;9015;-71
2023/01/04 12:37:04;;;;;;;;;;;;;;;25.67;42.60;95314.59;4891289;29;7424;-71
2023/01/04 12:39:40;;;;;;;;;;;;;;;25.61;42.60;95308.28;4879546;29;9619;-71
2023/01/04 12:42:10;;;;;;;;;;;;;;;25.61;42.62;95307.53;4872353;29;9055;-71
2023/01/04 12:44:37;;;;;;;;;;;;;;;25.60;42.83;95295.00;4893087;29;7553;-71
2023/01/04 12:50:23;;;;;;;;;;;;;;;25.58;42.78;95292.72;4911982;29;9719;-71
2023/01/04 12:53:03;;;;;;;;;;;;;;;25.57;43.05;95282.97;4901049;29;7203;-71
2023/01/04 12:55:40;;;;;;;;;;;;;;;25.57;43.19;95293.97;4888109;29;7278;-71
2023/01/04 12:58:27;;;;;;;;;;;;;;;25.58;42.46;95287.22;4887316;29;7139;-71
2023/01/04 13:01:36;;;;;;;;;;;;;;;25.61;42.62;95286.25;4884276;29;7066;-70
2023/01/04 13:08:15;;;;;;;;;;;;;;;25.58;42.45;95272.69;4966066;28;7026;-71
2023/01/04 13:11:27;;;;;;;;;;;;;;;25.56;43.42;95269.66;4964157;28;9327;-70
2023/01/04 13:13:55;;;;;;;;;;;;;;;25.54;43.11;95264.66;4901872;29;7048;-70
2023/01/04 13:16:41;;;;;;;;;;;;;;;25.55;42.67;95263.41;4903661;29;7284;-71
2023/01/04 13:19:36;;;;;;;;;;;;;;;25.58;42.45;95262.41;4912299;29;7994;-72
2023/01/04 13:22:31;;;;;;;;;;;;;;;25.60;42.78;95251.66;4856585;29;9542;-71
2023/01/04 13:25:01;;;;;;;;;;;;;;;25.64;42.28;95246.69;4860279;29;7299;-72
2023/01/04 13:28:04;;;;;;;;;;;;;;;25.64;43.00;95248.69;4834202;29;7289;-72
2023/01/04 13:30:59;;;;;;;;;;;;;;;25.62;42.64;95248.44;4826780;29;9050;-73
2023/01/04 13:33:36;;;;;;;;;;;;;;;25.60;42.44;95232.38;4820454;29;7288;-72
2023/01/04 13:40:22;;;;;;;;;;;;;;;25.62;42.29;95240.91;4800697;29;6861;-72
2023/01/04 13:46:31;;;;;;;;;;;;;;;25.62;42.18;95243.66;4747834;30;7511;-71
2023/01/04 13:49:21;;;;;;;;;;;;;;;25.63;42.76;95247.19;4750846;30;8236;-72
2023/01/04 13:52:20;;;;;;;;;;;;;;;25.64;42.12;95246.69;4771061;30;7044;-72
2023/01/04 13:55:32;;;;;;;;;;;;;;;25.63;42.10;95253.44;4766984;30;7596;-72
2023/01/04 13:58:32;;;;;;;;;;;;;;;25.65;42.35;95248.19;4765054;30;7068;-73
2023/01/04 14:01:31;;;;;;;;;;;;;;;25.67;43.23;95253.22;4765031;30;9448;-71
2023/01/04 14:04:25;;;;;;;;;;;;;;;25.66;42.42;95254.47;4758171;30;7030;-71
2023/01/04 14:06:56;;;;;;;;;;;;;;;25.66;42.99;95258.00;4675419;30;8856;-71
2023/01/04 14:09:59;;;;;;;;;;;;;;;25.67;42.33;95247.69;4708915;30;7042;-71
2023/01/04 14:12:35;;;;;;;;;;;;;;;25.66;42.28;95244.22;4695899;30;7625;-71
2023/01/04 14:15:04;;;;;;;;;;;;;;;25.68;42.31;95254.72;4729325;30;6981;-71
2023/01/04 14:17:46;;;;;;;;;;;;;;;25.66;43.08;95258.00;4729636;30;7699;-71
2023/01/04 14:20:21;;;;;;;;;;;;;;;25.68;42.06;95252.75;4810212;29;7128;-71
2023/01/04 14:23:00;;;;;;;;;;;;;;;25.69;41.79;95248.72;4812184;29;7153;-72
2023/01/04 14:25:47;;;;;;;;;;;;;;;25.70;41.50;95243.97;4795968;29;8806;-71
2023/01/04 14:28:17;;;;;;;;;;;;;;;25.69;42.09;95248.72;4795154;29;7348;-72
2023/01/04 14:30:46;;;;;;;;;;;;;;;25.70;41.76;95250.25;4798363;29;9293;-71
2023/01/04 14:33:37;;;;;;;;;;;;;;;25.71;41.81;95242.75;4782075;29;9377;-72
2023/01/04 14:36:27;;;;;;;;;;;;;;;25.73;41.63;95251.28;4806413;29;7416;-72
2023/01/04 14:39:24;;;;;;;;;;;;;;;25.72;42.05;95247.75;4848240;29;9100;-72
2023/01/04 14:41:53;;;;;;;;;;;;;;;25.73;41.50;95249.25;4856882;29;7197;-72
2023/01/04 14:44:27;;;;;;;;;;;;;;;25.75;42.52;95257.03;4938122;28;9123;-72
2023/01/04 14:46:59;;;;;;;;;;;;;;;25.77;41.37;95252.56;4966752;28;7148;-71
2023/01/04 14:49:28;;;;;;;;;;;;;;;25.79;41.62;95247.31;4972092;28;7639;-72
2023/01/04 14:52:00;;;;;;;;;;;;;;;25.82;41.46;95251.06;4964101;28;7169;-72
2023/01/04 14:55:11;;;;;;;;;;;;;;;25.83;41.23;95249.81;4972198;28;8645;-72
2023/01/04 14:57:42;;;;;;;;;;;;;;;25.82;41.51;95248.28;4892953;29;9095;-72
2023/01/04 15:00:14;;;;;;;;;;;;;;;25.81;41.26;95252.31;4891115;29;7184;-72
2023/01/04 15:02:48;;;;;;;;;;;;;;;25.80;41.28;95248.78;4891074;29;8062;-72